Station Historical Data
Daily Summary for April 28, 2017 Units:  Metric    English   Both
« Previous Day
Next Day »
Daily Weekly Monthly Yearly Custom
  High: Low: Average:
Temperature: 29.2 °C 17.1 °C 22.8 °C
Dew Point: 20.3 °C 15.4 °C 18.2 °C
Humidity: 93% 54% 77%
Wind Speed: 1.6km/h 0km/h 0km/h
Wind Gust: 8km/h - -
Wind- - SSE
Pressure: 1018.5 hPa 1012.4 hPa -
Precipitation: 0 mm    
Historical Graphs
 
 
Tabular Data for April 28, 2017
Time Temperature Dew Point Pressure Wind Wind Speed Wind Gust Humidity Rainfall Rate (Hourly) solar Conditions
00:00 17.1 °C 15.4 °C 1012.4 hPa Calm     90% 0 mm WeatherDisplay:10.37 W/m2 RA
00:15 17.5 °C 15.8 °C 1012.4 hPa Calm     90% 0 mm WeatherDisplay:10.37 W/m2 SCT
00:30 18.6 °C 17.4 °C 1012.4 hPa Calm     93% 0 mm WeatherDisplay:10.37 W/m2 SCT
00:45 17.6 °C 15.8 °C 1012.4 hPa Calm     89% 0 mm WeatherDisplay:10.37 W/m2 SCT
01:00 17.2 °C 15.5 °C 1012.4 hPa Calm     90% 0 mm WeatherDisplay:10.37 W/m2 SCT
01:15 17.4 °C 15.9 °C 1012.8 hPa Calm     91% 0 mm WeatherDisplay:10.37 W/m2 SCT
01:30 17.4 °C 15.9 °C 1012.8 hPa Calm     91% 0 mm WeatherDisplay:10.37 W/m2 SCT
01:45 18.1 °C 16.8 °C 1013.1 hPa Calm     92% 0 mm WeatherDisplay:10.37 W/m2 SCT
02:00 18.8 °C 17.7 °C 1013.1 hPa Calm     93% 0 mm WeatherDisplay:10.37 W/m2 SCT
02:15 18.8 °C 17.4 °C 1013.1 hPa Calm     92% 0 mm WeatherDisplay:10.37 W/m2 SCT
02:30 18.3 °C 17 °C 1013.1 hPa Calm     92% 0 mm WeatherDisplay:10.37 W/m2 SCT
02:45 18.4 °C 17.1 °C 1013.1 hPa Calm   1.6 km/h 92% 0 mm WeatherDisplay:10.37 W/m2 SCT
03:00 18.4 °C 17.1 °C 1013.1 hPa Calm     92% 0 mm WeatherDisplay:10.37 W/m2 SCT
03:15 18.4 °C 17.1 °C 1013.1 hPa Calm     92% 0 mm WeatherDisplay:10.37 W/m2 SCT
03:30 18.5 °C 17.2 °C 1013.1 hPa Calm   1.6 km/h 92% 0 mm WeatherDisplay:10.37 W/m2 SCT
03:45 18.4 °C 17.1 °C 1013.4 hPa Calm     92% 0 mm WeatherDisplay:10.37 W/m2 SCT
04:00 17.8 °C 16.5 °C 1013.4 hPa Calm     92% 0 mm WeatherDisplay:10.37 W/m2 SCT
04:15 17.8 °C 16.5 °C 1013.4 hPa Calm     92% 0 mm WeatherDisplay:10.37 W/m2 SCT
04:30 17.8 °C 16.5 °C 1013.4 hPa Calm     92% 0 mm WeatherDisplay:10.37 W/m2 SCT
04:45 17.8 °C 16.5 °C 1013.4 hPa Calm     92% 0 mm WeatherDisplay:10.37 W/m2 SCT
05:00 17.8 °C 16.5 °C 1013.4 hPa Calm     92% 0 mm WeatherDisplay:10.37 W/m2 SCT
05:15 17.8 °C 16.5 °C 1013.8 hPa Calm     92% 0 mm WeatherDisplay:10.37 W/m2 SCT
05:30 17.8 °C 16.5 °C 1014.1 hPa Calm     92% 0 mm WeatherDisplay:10.37 W/m2 SCT
05:45 17.8 °C 16.5 °C 1014.1 hPa Calm     92% 0 mm WeatherDisplay:10.37 W/m2 SCT
06:00 17.8 °C 16.5 °C 1014.1 hPa Calm     92% 0 mm WeatherDisplay:10.37 W/m2 SCT
06:15 17.8 °C 16.5 °C 1014.4 hPa Calm     92% 0 mm WeatherDisplay:10.37 W/m2 SCT
06:30 17.8 °C 16.5 °C 1014.4 hPa Calm     92% 0 mm WeatherDisplay:10.37 W/m2 SCT
07:00 17.8 °C 16.5 °C 1014.8 hPa Calm     92% 0 mm WeatherDisplay:10.37 W/m2 SCT
07:30 17.8 °C 16.5 °C 1015.5 hPa Calm     92% 0 mm WeatherDisplay:10.37 W/m2 SCT
07:45 17.8 °C 16.5 °C 1015.8 hPa Calm     92% 0 mm WeatherDisplay:10.37 W/m2 SCT
08:00 17.8 °C 16.5 °C 1015.8 hPa Calm     92% 0 mm WeatherDisplay:10.37 W/m2 SCT
08:15 17.8 °C 16.5 °C 1016.1 hPa Calm     92% 0 mm WeatherDisplay:10.37 W/m2 SCT
08:30 17.8 °C 16.5 °C 1016.1 hPa Calm     92% 0 mm WeatherDisplay:10.37 W/m2 SCT
08:45 17.8 °C 16.5 °C 1016.1 hPa Calm     92% 0 mm WeatherDisplay:10.37 W/m2 SCT
09:00 17.8 °C 16.5 °C 1016.5 hPa Calm     92% 0 mm WeatherDisplay:10.37 W/m2 SCT
09:15 17.8 °C 16.5 °C 1016.5 hPa Calm     92% 0 mm WeatherDisplay:10.37 W/m2 SCT
09:30 20.2 °C 19 °C 1016.5 hPa Calm     93% 0 mm WeatherDisplay:10.37 W/m2 SCT
09:45 20.5 °C 19.3 °C 1016.8 hPa Calm   1.6 km/h 93% 0 mm WeatherDisplay:10.37 W/m2 SCT
10:00 21.1 °C 19.7 °C 1016.8 hPa Calm   1.6 km/h 92% 0 mm WeatherDisplay:10.37 W/m2 SCT
10:15 21.5 °C 19.8 °C 1016.8 hPa Calm   1.6 km/h 90% 0 mm WeatherDisplay:10.37 W/m2 SCT
10:30 22.4 °C 20.3 °C 1016.8 hPa Calm     88% 0 mm WeatherDisplay:10.37 W/m2 SCT
10:45 23.6 °C 20.3 °C 1016.8 hPa Calm   3.2 km/h 82% 0 mm WeatherDisplay:10.37 W/m2 SCT
11:00 24.4 °C 20.1 °C 1016.8 hPa Calm   3.2 km/h 77% 0 mm WeatherDisplay:10.37 W/m2 SCT
11:15 24.8 °C 20.1 °C 1016.8 hPa Calm   3.2 km/h 75% 0 mm WeatherDisplay:10.37 W/m2 SCT
11:30 25.4 °C 20 °C 1017.2 hPa Calm   4.8 km/h 72% 0 mm WeatherDisplay:10.37 W/m2 SCT
11:45 24.9 °C 19.6 °C 1017.2 hPa Calm   3.2 km/h 72% 0 mm WeatherDisplay:10.37 W/m2 SCT
12:00 25.3 °C 19.9 °C 1016.8 hPa Calm   1.6 km/h 72% 0 mm WeatherDisplay:10.37 W/m2 SCT
12:15 26.7 °C 19.8 °C 1016.8 hPa NW 1.6 km/h 8 km/h 66% 0 mm WeatherDisplay:10.37 W/m2 SCT
12:30 26.9 °C 19.8 °C 1017.2 hPa Calm   4.8 km/h 65% 0 mm WeatherDisplay:10.37 W/m2 SCT
12:45 26.9 °C 19.8 °C 1016.8 hPa Calm   3.2 km/h 65% 0 mm WeatherDisplay:10.37 W/m2 SCT
13:00 27.6 °C 19.8 °C 1016.8 hPa Calm   4.8 km/h 63% 0 mm WeatherDisplay:10.37 W/m2 SCT
13:15 27.6 °C 19.4 °C 1016.5 hPa Calm   3.2 km/h 61% 0 mm WeatherDisplay:10.37 W/m2 SCT
13:30 28.1 °C 19 °C 1016.5 hPa Calm   6.4 km/h 58% 0 mm WeatherDisplay:10.37 W/m2 SCT
13:45 28.4 °C 19.1 °C 1016.5 hPa Calm   3.2 km/h 57% 0 mm WeatherDisplay:10.37 W/m2 SCT
14:00 28.9 °C 19 °C 1016.5 hPa Calm   3.2 km/h 55% 0 mm WeatherDisplay:10.37 W/m2 SCT
14:15 28.8 °C 18.8 °C 1016.5 hPa Calm   4.8 km/h 55% 0 mm WeatherDisplay:10.37 W/m2 SCT
14:30 29.2 °C 19.8 °C 1016.5 hPa Calm   3.2 km/h 57% 0 mm WeatherDisplay:10.37 W/m2 SCT
14:45 28.9 °C 19.2 °C 1016.5 hPa Calm   4.8 km/h 56% 0 mm WeatherDisplay:10.37 W/m2 SCT
15:00 29.2 °C 18.9 °C 1016.5 hPa NNE 1.6 km/h 8 km/h 54% 0 mm WeatherDisplay:10.37 W/m2 SCT
15:15 28.9 °C 18.9 °C 1016.1 hPa Calm   3.2 km/h 55% 0 mm WeatherDisplay:10.37 W/m2 SCT
15:30 29.1 °C 19.2 °C 1016.1 hPa Calm   3.2 km/h 55% 0 mm WeatherDisplay:10.37 W/m2 SCT
15:45 28.7 °C 19 °C 1016.1 hPa Calm   4.8 km/h 56% 0 mm WeatherDisplay:10.37 W/m2 SCT
16:00 28.3 °C 18.7 °C 1016.1 hPa Calm   4.8 km/h 56% 0 mm WeatherDisplay:10.37 W/m2 SCT
16:15 27.8 °C 18.5 °C 1016.1 hPa Calm   4.8 km/h 57% 0 mm WeatherDisplay:10.37 W/m2 SCT
16:30 28.1 °C 19 °C 1016.1 hPa Calm   8 km/h 58% 0 mm WeatherDisplay:10.37 W/m2 SCT
16:45 27.7 °C 18.4 °C 1016.1 hPa Calm   3.2 km/h 57% 0 mm WeatherDisplay:10.37 W/m2 SCT
17:00 27.2 °C 19.3 °C 1016.1 hPa Calm   3.2 km/h 62% 0 mm WeatherDisplay:10.37 W/m2 SCT
17:15 27.9 °C 18.9 °C 1016.1 hPa Calm   3.2 km/h 58% 0 mm WeatherDisplay:10.37 W/m2 SCT
17:30 28.1 °C 18.8 °C 1016.1 hPa Calm   4.8 km/h 57% 0 mm WeatherDisplay:10.37 W/m2 SCT
17:45 27.8 °C 19.1 °C 1016.1 hPa Calm   3.2 km/h 59% 0 mm WeatherDisplay:10.37 W/m2 SCT
18:00 27.8 °C 19.3 °C 1016.1 hPa Calm   3.2 km/h 60% 0 mm WeatherDisplay:10.37 W/m2 SCT
18:15 27.9 °C 19.2 °C 1016.1 hPa Calm   1.6 km/h 59% 0 mm WeatherDisplay:10.37 W/m2 SCT
18:30 27.2 °C 19.1 °C 1016.1 hPa Calm   4.8 km/h 61% 0 mm WeatherDisplay:10.37 W/m2 SCT
18:45 26.9 °C 19 °C 1016.1 hPa Calm   1.6 km/h 62% 0 mm WeatherDisplay:10.37 W/m2 SCT
19:00 26.8 °C 19.4 °C 1016.1 hPa Calm   1.6 km/h 64% 0 mm WeatherDisplay:10.37 W/m2 SCT
19:15 26.9 °C 19.1 °C 1016.1 hPa Calm   3.2 km/h 62% 0 mm WeatherDisplay:10.37 W/m2 SCT
19:30 26.7 °C 19.3 °C 1016.5 hPa Calm   1.6 km/h 64% 0 mm WeatherDisplay:10.37 W/m2 SCT
19:45 26.3 °C 19.2 °C 1016.5 hPa Calm     65% 0 mm WeatherDisplay:10.37 W/m2 SCT
20:00 25.9 °C 19.1 °C 1016.8 hPa Calm     66% 0 mm WeatherDisplay:10.37 W/m2 SCT
20:15 25.5 °C 18.9 °C 1016.8 hPa Calm     67% 0 mm WeatherDisplay:10.37 W/m2 SCT
20:30 25.1 °C 19.1 °C 1016.8 hPa Calm     69% 0 mm WeatherDisplay:10.37 W/m2 SCT
20:45 24.8 °C 19 °C 1017.2 hPa Calm     70% 0 mm WeatherDisplay:10.37 W/m2 SCT
21:00 24.5 °C 18.9 °C 1017.2 hPa Calm     71% 0 mm WeatherDisplay:10.37 W/m2 SCT
21:15 24.2 °C 18.8 °C 1017.5 hPa Calm     72% 0 mm WeatherDisplay:10.37 W/m2 SCT
21:30 23.9 °C 18.8 °C 1017.5 hPa Calm     73% 0 mm WeatherDisplay:10.37 W/m2 SCT
21:45 23.6 °C 18.7 °C 1017.8 hPa Calm     74% 0 mm WeatherDisplay:10.37 W/m2 SCT
22:00 23.4 °C 18.9 °C 1017.8 hPa Calm     76% 0 mm WeatherDisplay:10.37 W/m2 SCT
22:15 23.1 °C 18.7 °C 1018.2 hPa Calm     76% 0 mm WeatherDisplay:10.37 W/m2 SCT
22:30 22.8 °C 18.8 °C 1018.2 hPa Calm     78% 0 mm WeatherDisplay:10.37 W/m2 SCT
22:45 22.6 °C 18.7 °C 1018.2 hPa Calm     79% 0 mm WeatherDisplay:10.37 W/m2 SCT
23:00 22.4 °C 18.8 °C 1018.5 hPa Calm     80% 0 mm WeatherDisplay:10.37 W/m2 SCT
23:15 22.4 °C 18.6 °C 1018.5 hPa Calm     79% 0 mm WeatherDisplay:10.37 W/m2 SCT
23:30 22.2 °C 18.6 °C 1018.5 hPa Calm     80% 0 mm WeatherDisplay:10.37 W/m2 SCT
23:45 21.9 °C 18.5 °C 1018.5 hPa Calm     81% 0 mm WeatherDisplay:10.37 W/m2 SCT
Piedmont Bend
Compliments of Weather Underground - 4 mb